sensor_id;sensor_type;location;lat;lon;timestamp;P1;durP1;ratioP1;P2;durP2;ratioP2
15708;SDS011;7954;51.914;8.420;2022-12-18T00:00:06;14.87;;;11.20;;
15708;SDS011;7954;51.914;8.420;2022-12-18T00:02:37;14.97;;;10.53;;
15708;SDS011;7954;51.914;8.420;2022-12-18T00:05:06;13.90;;;10.60;;
15708;SDS011;7954;51.914;8.420;2022-12-18T00:07:36;14.67;;;11.00;;
15708;SDS011;7954;51.914;8.420;2022-12-18T00:10:05;14.13;;;10.07;;
15708;SDS011;7954;51.914;8.420;2022-12-18T00:12:33;15.50;;;10.27;;
15708;SDS011;7954;51.914;8.420;2022-12-18T00:15:01;13.37;;;10.63;;
15708;SDS011;7954;51.914;8.420;2022-12-18T00:17:30;12.80;;;8.97;;
15708;SDS011;7954;51.914;8.420;2022-12-18T00:19:59;16.47;;;11.40;;
15708;SDS011;7954;51.914;8.420;2022-12-18T00:22:27;14.53;;;9.80;;
15708;SDS011;7954;51.914;8.420;2022-12-18T00:24:55;12.20;;;9.00;;
15708;SDS011;7954;51.914;8.420;2022-12-18T00:27:24;12.40;;;8.90;;
15708;SDS011;7954;51.914;8.420;2022-12-18T00:29:54;10.93;;;8.50;;
15708;SDS011;7954;51.914;8.420;2022-12-18T00:32:23;12.03;;;9.00;;
15708;SDS011;7954;51.914;8.420;2022-12-18T00:34:52;9.87;;;7.33;;
15708;SDS011;7954;51.914;8.420;2022-12-18T00:37:22;10.97;;;8.73;;
15708;SDS011;7954;51.914;8.420;2022-12-18T00:39:50;13.33;;;9.33;;
15708;SDS011;7954;51.914;8.420;2022-12-18T00:42:19;11.40;;;8.23;;
15708;SDS011;7954;51.914;8.420;2022-12-18T00:45:05;10.87;;;8.57;;
15708;SDS011;7954;51.914;8.420;2022-12-18T00:47:38;10.90;;;8.13;;
15708;SDS011;7954;51.914;8.420;2022-12-18T00:50:07;9.17;;;7.27;;
15708;SDS011;7954;51.914;8.420;2022-12-18T00:52:37;8.93;;;7.03;;
15708;SDS011;7954;51.914;8.420;2022-12-18T00:55:05;10.10;;;7.03;;
15708;SDS011;7954;51.914;8.420;2022-12-18T00:57:34;9.87;;;6.90;;
15708;SDS011;7954;51.914;8.420;2022-12-18T01:00:02;9.47;;;7.17;;
15708;SDS011;7954;51.914;8.420;2022-12-18T01:02:32;7.10;;;6.23;;
15708;SDS011;7954;51.914;8.420;2022-12-18T01:05:00;8.03;;;5.90;;
15708;SDS011;7954;51.914;8.420;2022-12-18T01:07:28;9.07;;;6.57;;
15708;SDS011;7954;51.914;8.420;2022-12-18T01:09:59;8.77;;;6.23;;
15708;SDS011;7954;51.914;8.420;2022-12-18T01:12:27;7.77;;;6.03;;
15708;SDS011;7954;51.914;8.420;2022-12-18T01:14:55;9.10;;;6.13;;
15708;SDS011;7954;51.914;8.420;2022-12-18T01:17:24;9.03;;;5.73;;
15708;SDS011;7954;51.914;8.420;2022-12-18T01:19:52;7.43;;;5.73;;
15708;SDS011;7954;51.914;8.420;2022-12-18T01:22:21;8.03;;;5.77;;
15708;SDS011;7954;51.914;8.420;2022-12-18T01:24:49;7.60;;;5.93;;
15708;SDS011;7954;51.914;8.420;2022-12-18T01:27:18;6.60;;;5.67;;
15708;SDS011;7954;51.914;8.420;2022-12-18T01:29:46;8.03;;;6.33;;
15708;SDS011;7954;51.914;8.420;2022-12-18T01:32:14;7.13;;;5.50;;
15708;SDS011;7954;51.914;8.420;2022-12-18T01:34:42;7.90;;;5.77;;
15708;SDS011;7954;51.914;8.420;2022-12-18T01:37:10;8.33;;;5.77;;
15708;SDS011;7954;51.914;8.420;2022-12-18T01:39:39;6.70;;;5.07;;
15708;SDS011;7954;51.914;8.420;2022-12-18T01:42:09;7.33;;;5.20;;
15708;SDS011;7954;51.914;8.420;2022-12-18T01:44:57;7.07;;;5.13;;
15708;SDS011;7954;51.914;8.420;2022-12-18T01:47:35;6.10;;;4.87;;
15708;SDS011;7954;51.914;8.420;2022-12-18T01:50:07;6.30;;;5.00;;
15708;SDS011;7954;51.914;8.420;2022-12-18T01:52:37;5.87;;;4.80;;
15708;SDS011;7954;51.914;8.420;2022-12-18T01:55:08;7.60;;;5.00;;
15708;SDS011;7954;51.914;8.420;2022-12-18T01:57:38;5.90;;;4.67;;
15708;SDS011;7954;51.914;8.420;2022-12-18T02:00:10;6.43;;;4.77;;
15708;SDS011;7954;51.914;8.420;2022-12-18T02:02:39;6.17;;;4.50;;
15708;SDS011;7954;51.914;8.420;2022-12-18T02:05:09;5.97;;;4.63;;
15708;SDS011;7954;51.914;8.420;2022-12-18T02:07:42;7.10;;;4.70;;
15708;SDS011;7954;51.914;8.420;2022-12-18T02:10:18;5.20;;;4.50;;
15708;SDS011;7954;51.914;8.420;2022-12-18T02:12:52;5.13;;;4.03;;
15708;SDS011;7954;51.914;8.420;2022-12-18T02:15:30;5.77;;;4.63;;
15708;SDS011;7954;51.914;8.420;2022-12-18T02:18:03;6.40;;;4.57;;
15708;SDS011;7954;51.914;8.420;2022-12-18T02:20:37;5.33;;;4.57;;
15708;SDS011;7954;51.914;8.420;2022-12-18T02:23:12;5.70;;;3.87;;
15708;SDS011;7954;51.914;8.420;2022-12-18T02:26:00;4.93;;;4.03;;
15708;SDS011;7954;51.914;8.420;2022-12-18T02:28:40;5.13;;;3.93;;
15708;SDS011;7954;51.914;8.420;2022-12-18T02:31:13;4.83;;;4.17;;
15708;SDS011;7954;51.914;8.420;2022-12-18T02:33:44;4.50;;;3.57;;
15708;SDS011;7954;51.914;8.420;2022-12-18T02:36:12;5.50;;;3.67;;
15708;SDS011;7954;51.914;8.420;2022-12-18T02:38:42;5.73;;;3.90;;
15708;SDS011;7954;51.914;8.420;2022-12-18T02:41:14;4.57;;;3.50;;
15708;SDS011;7954;51.914;8.420;2022-12-18T02:43:46;4.50;;;3.53;;
15708;SDS011;7954;51.914;8.420;2022-12-18T02:46:25;5.33;;;3.73;;
15708;SDS011;7954;51.914;8.420;2022-12-18T02:48:59;4.20;;;3.17;;
15708;SDS011;7954;51.914;8.420;2022-12-18T02:51:37;4.17;;;3.53;;
15708;SDS011;7954;51.914;8.420;2022-12-18T02:54:13;4.83;;;3.80;;
15708;SDS011;7954;51.914;8.420;2022-12-18T02:56:53;5.20;;;3.67;;
15708;SDS011;7954;51.914;8.420;2022-12-18T02:59:26;4.83;;;3.60;;
15708;SDS011;7954;51.914;8.420;2022-12-18T03:02:01;4.53;;;3.33;;
15708;SDS011;7954;51.914;8.420;2022-12-18T03:04:36;4.73;;;3.47;;
15708;SDS011;7954;51.914;8.420;2022-12-18T03:07:09;5.47;;;3.90;;
15708;SDS011;7954;51.914;8.420;2022-12-18T03:09:43;4.13;;;3.27;;
15708;SDS011;7954;51.914;8.420;2022-12-18T03:12:17;4.77;;;3.30;;
15708;SDS011;7954;51.914;8.420;2022-12-18T03:14:53;4.73;;;3.60;;
15708;SDS011;7954;51.914;8.420;2022-12-18T03:17:26;4.80;;;3.87;;
15708;SDS011;7954;51.914;8.420;2022-12-18T03:19:58;5.27;;;3.20;;
15708;SDS011;7954;51.914;8.420;2022-12-18T03:22:36;4.00;;;3.17;;
15708;SDS011;7954;51.914;8.420;2022-12-18T03:25:06;3.50;;;3.20;;
15708;SDS011;7954;51.914;8.420;2022-12-18T03:27:40;4.47;;;3.37;;
15708;SDS011;7954;51.914;8.420;2022-12-18T03:30:13;5.57;;;3.47;;
15708;SDS011;7954;51.914;8.420;2022-12-18T03:32:42;3.40;;;3.00;;
15708;SDS011;7954;51.914;8.420;2022-12-18T03:35:16;3.90;;;3.20;;
15708;SDS011;7954;51.914;8.420;2022-12-18T03:37:49;3.63;;;3.07;;
15708;SDS011;7954;51.914;8.420;2022-12-18T03:40:17;3.43;;;3.00;;
15708;SDS011;7954;51.914;8.420;2022-12-18T03:42:48;3.57;;;2.80;;
15708;SDS011;7954;51.914;8.420;2022-12-18T03:45:20;4.43;;;3.13;;
15708;SDS011;7954;51.914;8.420;2022-12-18T03:47:58;3.63;;;3.07;;
15708;SDS011;7954;51.914;8.420;2022-12-18T03:50:32;4.97;;;3.27;;
15708;SDS011;7954;51.914;8.420;2022-12-18T03:53:06;4.77;;;3.30;;
15708;SDS011;7954;51.914;8.420;2022-12-18T03:55:45;3.40;;;2.73;;
15708;SDS011;7954;51.914;8.420;2022-12-18T03:58:17;4.33;;;2.93;;
15708;SDS011;7954;51.914;8.420;2022-12-18T04:00:47;4.30;;;3.20;;
15708;SDS011;7954;51.914;8.420;2022-12-18T04:03:18;2.90;;;2.57;;
15708;SDS011;7954;51.914;8.420;2022-12-18T04:05:51;4.47;;;2.90;;
15708;SDS011;7954;51.914;8.420;2022-12-18T04:08:23;4.70;;;3.30;;
15708;SDS011;7954;51.914;8.420;2022-12-18T04:10:53;3.60;;;2.87;;
15708;SDS011;7954;51.914;8.420;2022-12-18T04:13:27;3.73;;;2.90;;
15708;SDS011;7954;51.914;8.420;2022-12-18T04:15:59;3.27;;;2.83;;
15708;SDS011;7954;51.914;8.420;2022-12-18T04:18:27;3.97;;;3.13;;
15708;SDS011;7954;51.914;8.420;2022-12-18T04:20:55;3.50;;;2.63;;
15708;SDS011;7954;51.914;8.420;2022-12-18T04:23:23;4.00;;;2.80;;
15708;SDS011;7954;51.914;8.420;2022-12-18T04:25:51;3.87;;;2.60;;
15708;SDS011;7954;51.914;8.420;2022-12-18T04:28:20;4.80;;;3.00;;
15708;SDS011;7954;51.914;8.420;2022-12-18T04:30:49;5.03;;;3.00;;
15708;SDS011;7954;51.914;8.420;2022-12-18T04:33:17;3.93;;;3.30;;
15708;SDS011;7954;51.914;8.420;2022-12-18T04:35:45;3.50;;;2.80;;
15708;SDS011;7954;51.914;8.420;2022-12-18T04:38:13;3.73;;;2.73;;
15708;SDS011;7954;51.914;8.420;2022-12-18T04:40:42;3.57;;;2.77;;
15708;SDS011;7954;51.914;8.420;2022-12-18T04:43:11;3.37;;;3.07;;
15708;SDS011;7954;51.914;8.420;2022-12-18T04:45:39;3.67;;;2.87;;
15708;SDS011;7954;51.914;8.420;2022-12-18T04:48:08;4.77;;;3.40;;
15708;SDS011;7954;51.914;8.420;2022-12-18T04:50:36;3.60;;;2.80;;
15708;SDS011;7954;51.914;8.420;2022-12-18T04:53:06;3.70;;;3.13;;
15708;SDS011;7954;51.914;8.420;2022-12-18T04:55:35;6.13;;;3.43;;
15708;SDS011;7954;51.914;8.420;2022-12-18T04:58:04;3.97;;;2.97;;
15708;SDS011;7954;51.914;8.420;2022-12-18T05:00:32;4.77;;;2.70;;
15708;SDS011;7954;51.914;8.420;2022-12-18T05:03:00;3.20;;;2.50;;
15708;SDS011;7954;51.914;8.420;2022-12-18T05:05:30;3.83;;;3.13;;
15708;SDS011;7954;51.914;8.420;2022-12-18T05:07:59;4.17;;;2.90;;
15708;SDS011;7954;51.914;8.420;2022-12-18T05:10:28;3.70;;;3.10;;
15708;SDS011;7954;51.914;8.420;2022-12-18T05:13:03;3.93;;;2.93;;
15708;SDS011;7954;51.914;8.420;2022-12-18T05:15:32;3.80;;;2.90;;
15708;SDS011;7954;51.914;8.420;2022-12-18T05:18:00;3.80;;;3.10;;
15708;SDS011;7954;51.914;8.420;2022-12-18T05:20:31;4.30;;;3.03;;
15708;SDS011;7954;51.914;8.420;2022-12-18T05:22:59;3.63;;;3.20;;
15708;SDS011;7954;51.914;8.420;2022-12-18T05:25:27;3.33;;;3.03;;
15708;SDS011;7954;51.914;8.420;2022-12-18T05:27:55;3.10;;;2.80;;
15708;SDS011;7954;51.914;8.420;2022-12-18T05:30:24;4.47;;;3.33;;
15708;SDS011;7954;51.914;8.420;2022-12-18T05:32:51;3.57;;;3.10;;
15708;SDS011;7954;51.914;8.420;2022-12-18T05:35:20;4.77;;;3.47;;
15708;SDS011;7954;51.914;8.420;2022-12-18T05:37:50;4.20;;;3.20;;
15708;SDS011;7954;51.914;8.420;2022-12-18T05:40:18;4.83;;;3.77;;
15708;SDS011;7954;51.914;8.420;2022-12-18T05:42:46;4.43;;;3.47;;
15708;SDS011;7954;51.914;8.420;2022-12-18T05:45:15;3.40;;;3.10;;
15708;SDS011;7954;51.914;8.420;2022-12-18T05:47:43;3.30;;;3.00;;
15708;SDS011;7954;51.914;8.420;2022-12-18T05:50:11;4.07;;;3.27;;
15708;SDS011;7954;51.914;8.420;2022-12-18T05:52:40;5.50;;;3.60;;
15708;SDS011;7954;51.914;8.420;2022-12-18T05:55:09;3.53;;;3.23;;
15708;SDS011;7954;51.914;8.420;2022-12-18T05:57:37;3.57;;;3.20;;
15708;SDS011;7954;51.914;8.420;2022-12-18T06:00:06;4.17;;;3.33;;
15708;SDS011;7954;51.914;8.420;2022-12-18T06:02:35;4.40;;;3.63;;
15708;SDS011;7954;51.914;8.420;2022-12-18T06:05:03;3.80;;;3.30;;
15708;SDS011;7954;51.914;8.420;2022-12-18T06:07:33;4.23;;;3.60;;
15708;SDS011;7954;51.914;8.420;2022-12-18T06:10:01;4.27;;;3.60;;
15708;SDS011;7954;51.914;8.420;2022-12-18T06:12:32;4.10;;;3.60;;
15708;SDS011;7954;51.914;8.420;2022-12-18T06:15:00;4.13;;;3.70;;
15708;SDS011;7954;51.914;8.420;2022-12-18T06:17:28;4.37;;;3.63;;
15708;SDS011;7954;51.914;8.420;2022-12-18T06:19:56;4.27;;;3.50;;
15708;SDS011;7954;51.914;8.420;2022-12-18T06:22:25;4.83;;;3.90;;
15708;SDS011;7954;51.914;8.420;2022-12-18T06:24:54;4.90;;;3.80;;
15708;SDS011;7954;51.914;8.420;2022-12-18T06:27:23;5.43;;;3.77;;
15708;SDS011;7954;51.914;8.420;2022-12-18T06:29:52;5.13;;;4.10;;
15708;SDS011;7954;51.914;8.420;2022-12-18T06:32:20;4.53;;;4.07;;
15708;SDS011;7954;51.914;8.420;2022-12-18T06:34:49;4.83;;;3.93;;
15708;SDS011;7954;51.914;8.420;2022-12-18T06:37:17;4.63;;;3.73;;
15708;SDS011;7954;51.914;8.420;2022-12-18T06:39:45;4.50;;;3.47;;
15708;SDS011;7954;51.914;8.420;2022-12-18T06:42:13;4.23;;;3.63;;
15708;SDS011;7954;51.914;8.420;2022-12-18T06:44:41;3.97;;;3.57;;
15708;SDS011;7954;51.914;8.420;2022-12-18T06:47:11;5.60;;;3.90;;
15708;SDS011;7954;51.914;8.420;2022-12-18T06:49:39;5.37;;;3.67;;
15708;SDS011;7954;51.914;8.420;2022-12-18T06:52:07;5.53;;;4.20;;
15708;SDS011;7954;51.914;8.420;2022-12-18T06:54:35;6.27;;;5.20;;
15708;SDS011;7954;51.914;8.420;2022-12-18T06:57:03;6.73;;;5.27;;
15708;SDS011;7954;51.914;8.420;2022-12-18T06:59:32;6.10;;;5.10;;
15708;SDS011;7954;51.914;8.420;2022-12-18T07:02:00;6.73;;;4.70;;
15708;SDS011;7954;51.914;8.420;2022-12-18T07:04:30;6.20;;;4.87;;
15708;SDS011;7954;51.914;8.420;2022-12-18T07:06:58;5.40;;;4.90;;
15708;SDS011;7954;51.914;8.420;2022-12-18T07:09:26;5.80;;;4.67;;
15708;SDS011;7954;51.914;8.420;2022-12-18T07:11:54;5.93;;;4.00;;
15708;SDS011;7954;51.914;8.420;2022-12-18T07:14:23;4.93;;;4.43;;
15708;SDS011;7954;51.914;8.420;2022-12-18T07:16:51;5.10;;;4.60;;
15708;SDS011;7954;51.914;8.420;2022-12-18T07:19:20;5.53;;;4.90;;
15708;SDS011;7954;51.914;8.420;2022-12-18T07:21:50;5.57;;;4.97;;
15708;SDS011;7954;51.914;8.420;2022-12-18T07:24:19;4.57;;;4.17;;
15708;SDS011;7954;51.914;8.420;2022-12-18T07:26:46;6.37;;;4.40;;
15708;SDS011;7954;51.914;8.420;2022-12-18T07:29:14;6.27;;;4.73;;
15708;SDS011;7954;51.914;8.420;2022-12-18T07:31:43;5.33;;;4.10;;
15708;SDS011;7954;51.914;8.420;2022-12-18T07:34:11;5.80;;;4.00;;
15708;SDS011;7954;51.914;8.420;2022-12-18T07:36:39;6.03;;;4.70;;
15708;SDS011;7954;51.914;8.420;2022-12-18T07:39:10;8.90;;;7.10;;
15708;SDS011;7954;51.914;8.420;2022-12-18T07:41:38;22.03;;;15.23;;
15708;SDS011;7954;51.914;8.420;2022-12-18T07:44:12;10.30;;;8.10;;
15708;SDS011;7954;51.914;8.420;2022-12-18T07:46:40;6.17;;;5.37;;
15708;SDS011;7954;51.914;8.420;2022-12-18T07:49:08;6.10;;;5.50;;
15708;SDS011;7954;51.914;8.420;2022-12-18T07:51:39;6.00;;;5.40;;
15708;SDS011;7954;51.914;8.420;2022-12-18T07:54:07;6.83;;;5.10;;
15708;SDS011;7954;51.914;8.420;2022-12-18T07:56:36;6.47;;;5.87;;
15708;SDS011;7954;51.914;8.420;2022-12-18T07:59:05;5.60;;;5.03;;
15708;SDS011;7954;51.914;8.420;2022-12-18T08:01:33;5.53;;;4.60;;
15708;SDS011;7954;51.914;8.420;2022-12-18T08:04:01;4.60;;;4.20;;
15708;SDS011;7954;51.914;8.420;2022-12-18T08:06:29;5.60;;;4.13;;
15708;SDS011;7954;51.914;8.420;2022-12-18T08:08:58;5.73;;;4.47;;
15708;SDS011;7954;51.914;8.420;2022-12-18T08:11:26;6.17;;;4.50;;
15708;SDS011;7954;51.914;8.420;2022-12-18T08:13:57;5.57;;;4.27;;
15708;SDS011;7954;51.914;8.420;2022-12-18T08:16:26;5.37;;;4.03;;
15708;SDS011;7954;51.914;8.420;2022-12-18T08:18:55;4.77;;;4.23;;
15708;SDS011;7954;51.914;8.420;2022-12-18T08:21:24;6.10;;;4.50;;
15708;SDS011;7954;51.914;8.420;2022-12-18T08:23:54;5.70;;;3.77;;
15708;SDS011;7954;51.914;8.420;2022-12-18T08:26:24;4.57;;;4.00;;
15708;SDS011;7954;51.914;8.420;2022-12-18T08:28:53;5.47;;;4.60;;
15708;SDS011;7954;51.914;8.420;2022-12-18T08:31:23;4.67;;;3.90;;
15708;SDS011;7954;51.914;8.420;2022-12-18T08:33:52;5.37;;;4.03;;
15708;SDS011;7954;51.914;8.420;2022-12-18T08:36:21;5.07;;;4.07;;
15708;SDS011;7954;51.914;8.420;2022-12-18T08:38:50;4.67;;;4.17;;
15708;SDS011;7954;51.914;8.420;2022-12-18T08:41:19;6.80;;;4.47;;
15708;SDS011;7954;51.914;8.420;2022-12-18T08:43:47;4.60;;;3.90;;
15708;SDS011;7954;51.914;8.420;2022-12-18T08:46:35;4.60;;;4.00;;
15708;SDS011;7954;51.914;8.420;2022-12-18T08:49:05;5.73;;;3.97;;
15708;SDS011;7954;51.914;8.420;2022-12-18T08:51:34;4.70;;;4.20;;
15708;SDS011;7954;51.914;8.420;2022-12-18T08:54:02;4.67;;;3.90;;
15708;SDS011;7954;51.914;8.420;2022-12-18T08:56:31;4.60;;;3.90;;
15708;SDS011;7954;51.914;8.420;2022-12-18T08:59:02;4.67;;;3.83;;
15708;SDS011;7954;51.914;8.420;2022-12-18T09:01:30;6.43;;;4.57;;
15708;SDS011;7954;51.914;8.420;2022-12-18T09:04:02;5.13;;;4.50;;
15708;SDS011;7954;51.914;8.420;2022-12-18T09:06:32;5.20;;;4.30;;
15708;SDS011;7954;51.914;8.420;2022-12-18T09:08:59;6.00;;;5.30;;
15708;SDS011;7954;51.914;8.420;2022-12-18T09:11:28;5.53;;;4.53;;
15708;SDS011;7954;51.914;8.420;2022-12-18T09:13:58;5.03;;;4.53;;
15708;SDS011;7954;51.914;8.420;2022-12-18T09:16:27;5.10;;;4.47;;
15708;SDS011;7954;51.914;8.420;2022-12-18T09:18:58;6.47;;;4.70;;
15708;SDS011;7954;51.914;8.420;2022-12-18T09:21:28;5.50;;;4.50;;
15708;SDS011;7954;51.914;8.420;2022-12-18T09:24:02;5.60;;;4.83;;
15708;SDS011;7954;51.914;8.420;2022-12-18T09:26:33;6.27;;;4.70;;
15708;SDS011;7954;51.914;8.420;2022-12-18T09:29:01;6.07;;;4.43;;
15708;SDS011;7954;51.914;8.420;2022-12-18T09:31:30;4.80;;;4.30;;
15708;SDS011;7954;51.914;8.420;2022-12-18T09:33:58;4.93;;;4.43;;
15708;SDS011;7954;51.914;8.420;2022-12-18T09:36:25;5.90;;;4.80;;
15708;SDS011;7954;51.914;8.420;2022-12-18T09:38:56;6.07;;;5.00;;
15708;SDS011;7954;51.914;8.420;2022-12-18T09:44:21;6.47;;;5.17;;
15708;SDS011;7954;51.914;8.420;2022-12-18T09:46:53;4.80;;;4.30;;
15708;SDS011;7954;51.914;8.420;2022-12-18T09:49:28;5.97;;;5.00;;
15708;SDS011;7954;51.914;8.420;2022-12-18T09:52:00;5.37;;;4.33;;
15708;SDS011;7954;51.914;8.420;2022-12-18T09:54:35;7.03;;;4.97;;
15708;SDS011;7954;51.914;8.420;2022-12-18T09:57:09;6.70;;;4.20;;
15708;SDS011;7954;51.914;8.420;2022-12-18T09:59:41;6.13;;;4.60;;
15708;SDS011;7954;51.914;8.420;2022-12-18T10:02:15;5.27;;;4.30;;
15708;SDS011;7954;51.914;8.420;2022-12-18T10:04:45;4.33;;;3.93;;
15708;SDS011;7954;51.914;8.420;2022-12-18T10:07:21;6.37;;;4.70;;
15708;SDS011;7954;51.914;8.420;2022-12-18T10:09:58;6.27;;;4.90;;
15708;SDS011;7954;51.914;8.420;2022-12-18T10:12:32;4.97;;;4.23;;
15708;SDS011;7954;51.914;8.420;2022-12-18T10:15:10;5.13;;;4.23;;
15708;SDS011;7954;51.914;8.420;2022-12-18T10:17:44;4.83;;;4.33;;
15708;SDS011;7954;51.914;8.420;2022-12-18T10:20:20;5.07;;;3.90;;
15708;SDS011;7954;51.914;8.420;2022-12-18T10:22:53;5.50;;;4.30;;
15708;SDS011;7954;51.914;8.420;2022-12-18T10:25:30;4.73;;;4.17;;
15708;SDS011;7954;51.914;8.420;2022-12-18T10:28:07;5.43;;;4.33;;
15708;SDS011;7954;51.914;8.420;2022-12-18T10:30:38;4.33;;;3.93;;
15708;SDS011;7954;51.914;8.420;2022-12-18T10:33:08;4.87;;;4.37;;
15708;SDS011;7954;51.914;8.420;2022-12-18T10:35:39;5.70;;;4.33;;
15708;SDS011;7954;51.914;8.420;2022-12-18T10:38:20;6.07;;;4.03;;
15708;SDS011;7954;51.914;8.420;2022-12-18T10:40:52;5.80;;;4.03;;
15708;SDS011;7954;51.914;8.420;2022-12-18T10:43:23;5.70;;;4.73;;
15708;SDS011;7954;51.914;8.420;2022-12-18T10:46:00;4.93;;;4.33;;
15708;SDS011;7954;51.914;8.420;2022-12-18T10:48:33;4.83;;;4.00;;
15708;SDS011;7954;51.914;8.420;2022-12-18T10:51:04;6.03;;;4.40;;
15708;SDS011;7954;51.914;8.420;2022-12-18T10:53:38;4.47;;;4.03;;
15708;SDS011;7954;51.914;8.420;2022-12-18T10:56:11;5.30;;;4.10;;
15708;SDS011;7954;51.914;8.420;2022-12-18T10:58:39;4.53;;;4.10;;
15708;SDS011;7954;51.914;8.420;2022-12-18T11:01:09;4.67;;;3.90;;
15708;SDS011;7954;51.914;8.420;2022-12-18T11:03:40;4.40;;;3.97;;
15708;SDS011;7954;51.914;8.420;2022-12-18T11:06:10;4.20;;;3.80;;
15708;SDS011;7954;51.914;8.420;2022-12-18T11:08:39;4.57;;;4.03;;
15708;SDS011;7954;51.914;8.420;2022-12-18T11:11:18;4.53;;;4.03;;
15708;SDS011;7954;51.914;8.420;2022-12-18T11:13:54;4.17;;;3.77;;
15708;SDS011;7954;51.914;8.420;2022-12-18T11:16:28;4.53;;;4.00;;
15708;SDS011;7954;51.914;8.420;2022-12-18T11:19:10;4.93;;;4.00;;
15708;SDS011;7954;51.914;8.420;2022-12-18T11:21:47;4.30;;;3.90;;
15708;SDS011;7954;51.914;8.420;2022-12-18T11:24:19;4.90;;;3.60;;
15708;SDS011;7954;51.914;8.420;2022-12-18T11:26:51;4.43;;;3.63;;
15708;SDS011;7954;51.914;8.420;2022-12-18T11:29:27;4.47;;;3.33;;
15708;SDS011;7954;51.914;8.420;2022-12-18T11:34:59;9.70;;;6.57;;
15708;SDS011;7954;51.914;8.420;2022-12-18T11:37:31;9.93;;;7.10;;
15708;SDS011;7954;51.914;8.420;2022-12-18T11:40:01;7.97;;;6.23;;
15708;SDS011;7954;51.914;8.420;2022-12-18T11:42:38;10.53;;;7.77;;
15708;SDS011;7954;51.914;8.420;2022-12-18T11:45:21;6.40;;;5.40;;
15708;SDS011;7954;51.914;8.420;2022-12-18T11:47:55;4.93;;;4.37;;
15708;SDS011;7954;51.914;8.420;2022-12-18T11:50:31;5.97;;;4.67;;
15708;SDS011;7954;51.914;8.420;2022-12-18T11:53:09;6.23;;;4.87;;
15708;SDS011;7954;51.914;8.420;2022-12-18T11:55:39;6.50;;;4.90;;
15708;SDS011;7954;51.914;8.420;2022-12-18T11:58:17;8.07;;;6.60;;
15708;SDS011;7954;51.914;8.420;2022-12-18T12:00:59;7.10;;;6.30;;
15708;SDS011;7954;51.914;8.420;2022-12-18T12:04:03;7.17;;;5.33;;
15708;SDS011;7954;51.914;8.420;2022-12-18T12:06:51;8.73;;;6.73;;
15708;SDS011;7954;51.914;8.420;2022-12-18T12:09:30;4.60;;;3.93;;
15708;SDS011;7954;51.914;8.420;2022-12-18T12:12:13;6.97;;;4.77;;
15708;SDS011;7954;51.914;8.420;2022-12-18T12:14:54;5.20;;;4.10;;
15708;SDS011;7954;51.914;8.420;2022-12-18T12:17:33;7.53;;;5.47;;
15708;SDS011;7954;51.914;8.420;2022-12-18T12:20:07;6.60;;;5.23;;
15708;SDS011;7954;51.914;8.420;2022-12-18T12:22:44;6.33;;;4.97;;
15708;SDS011;7954;51.914;8.420;2022-12-18T12:25:21;5.60;;;4.80;;
15708;SDS011;7954;51.914;8.420;2022-12-18T12:28:01;4.83;;;4.03;;
15708;SDS011;7954;51.914;8.420;2022-12-18T12:30:47;5.00;;;3.87;;
15708;SDS011;7954;51.914;8.420;2022-12-18T12:33:27;4.80;;;4.00;;
15708;SDS011;7954;51.914;8.420;2022-12-18T12:36:07;6.00;;;5.17;;
15708;SDS011;7954;51.914;8.420;2022-12-18T12:38:45;7.03;;;5.40;;
15708;SDS011;7954;51.914;8.420;2022-12-18T12:41:18;5.27;;;4.03;;
15708;SDS011;7954;51.914;8.420;2022-12-18T12:44:08;4.83;;;4.00;;
15708;SDS011;7954;51.914;8.420;2022-12-18T12:46:45;5.27;;;4.53;;
15708;SDS011;7954;51.914;8.420;2022-12-18T12:49:15;7.00;;;3.63;;
15708;SDS011;7954;51.914;8.420;2022-12-18T12:51:47;4.33;;;3.93;;
15708;SDS011;7954;51.914;8.420;2022-12-18T12:54:21;4.30;;;3.67;;
15708;SDS011;7954;51.914;8.420;2022-12-18T12:56:54;4.43;;;3.80;;
15708;SDS011;7954;51.914;8.420;2022-12-18T12:59:29;6.40;;;4.73;;
15708;SDS011;7954;51.914;8.420;2022-12-18T13:02:10;6.53;;;5.03;;
15708;SDS011;7954;51.914;8.420;2022-12-18T13:04:47;4.70;;;4.10;;
15708;SDS011;7954;51.914;8.420;2022-12-18T13:07:23;5.40;;;4.77;;
15708;SDS011;7954;51.914;8.420;2022-12-18T13:10:14;7.60;;;5.73;;
15708;SDS011;7954;51.914;8.420;2022-12-18T13:12:55;5.90;;;4.77;;
15708;SDS011;7954;51.914;8.420;2022-12-18T13:15:34;5.13;;;4.60;;
15708;SDS011;7954;51.914;8.420;2022-12-18T13:18:15;5.07;;;4.53;;
15708;SDS011;7954;51.914;8.420;2022-12-18T13:20:47;5.53;;;4.47;;
15708;SDS011;7954;51.914;8.420;2022-12-18T13:23:38;12.67;;;9.83;;
15708;SDS011;7954;51.914;8.420;2022-12-18T13:26:28;10.90;;;8.37;;
15708;SDS011;7954;51.914;8.420;2022-12-18T13:28:58;8.53;;;5.80;;
15708;SDS011;7954;51.914;8.420;2022-12-18T13:34:43;7.97;;;6.20;;
15708;SDS011;7954;51.914;8.420;2022-12-18T13:43:39;8.23;;;5.33;;
15708;SDS011;7954;51.914;8.420;2022-12-18T13:46:18;5.97;;;4.50;;
15708;SDS011;7954;51.914;8.420;2022-12-18T13:48:49;8.43;;;5.63;;
15708;SDS011;7954;51.914;8.420;2022-12-18T13:51:21;5.77;;;4.90;;
15708;SDS011;7954;51.914;8.420;2022-12-18T13:53:52;6.93;;;5.53;;
15708;SDS011;7954;51.914;8.420;2022-12-18T13:56:23;9.47;;;6.80;;
15708;SDS011;7954;51.914;8.420;2022-12-18T13:59:14;6.83;;;5.43;;
15708;SDS011;7954;51.914;8.420;2022-12-18T14:01:52;5.37;;;3.80;;
15708;SDS011;7954;51.914;8.420;2022-12-18T14:04:24;4.97;;;3.80;;
15708;SDS011;7954;51.914;8.420;2022-12-18T14:06:58;6.03;;;3.63;;
15708;SDS011;7954;51.914;8.420;2022-12-18T14:09:30;3.13;;;2.83;;
15708;SDS011;7954;51.914;8.420;2022-12-18T14:12:06;3.83;;;3.27;;
15708;SDS011;7954;51.914;8.420;2022-12-18T14:14:52;5.60;;;4.10;;
15708;SDS011;7954;51.914;8.420;2022-12-18T14:17:21;4.60;;;3.33;;
15708;SDS011;7954;51.914;8.420;2022-12-18T14:19:51;4.23;;;3.73;;
15708;SDS011;7954;51.914;8.420;2022-12-18T14:22:21;6.23;;;3.87;;
15708;SDS011;7954;51.914;8.420;2022-12-18T14:25:05;5.03;;;3.33;;
15708;SDS011;7954;51.914;8.420;2022-12-18T14:27:42;4.50;;;3.50;;
15708;SDS011;7954;51.914;8.420;2022-12-18T14:30:25;5.80;;;4.37;;
15708;SDS011;7954;51.914;8.420;2022-12-18T14:33:02;4.90;;;3.70;;
15708;SDS011;7954;51.914;8.420;2022-12-18T14:35:31;4.73;;;3.33;;
15708;SDS011;7954;51.914;8.420;2022-12-18T14:38:15;4.73;;;4.10;;
15708;SDS011;7954;51.914;8.420;2022-12-18T14:40:51;6.00;;;4.20;;
15708;SDS011;7954;51.914;8.420;2022-12-18T14:43:20;4.63;;;3.93;;
15708;SDS011;7954;51.914;8.420;2022-12-18T14:45:49;4.80;;;3.80;;
15708;SDS011;7954;51.914;8.420;2022-12-18T14:48:18;6.47;;;4.37;;
15708;SDS011;7954;51.914;8.420;2022-12-18T14:50:56;5.63;;;4.40;;
15708;SDS011;7954;51.914;8.420;2022-12-18T14:53:36;5.40;;;4.20;;
15708;SDS011;7954;51.914;8.420;2022-12-18T14:56:13;5.37;;;4.23;;
15708;SDS011;7954;51.914;8.420;2022-12-18T14:58:47;10.37;;;7.03;;
15708;SDS011;7954;51.914;8.420;2022-12-18T15:01:20;4.80;;;4.30;;
15708;SDS011;7954;51.914;8.420;2022-12-18T15:03:50;4.13;;;3.70;;
15708;SDS011;7954;51.914;8.420;2022-12-18T15:06:24;4.20;;;3.80;;
15708;SDS011;7954;51.914;8.420;2022-12-18T15:08:56;4.97;;;3.50;;
15708;SDS011;7954;51.914;8.420;2022-12-18T15:11:29;4.33;;;3.80;;
15708;SDS011;7954;51.914;8.420;2022-12-18T15:17:06;6.10;;;3.80;;
15708;SDS011;7954;51.914;8.420;2022-12-18T15:19:42;4.83;;;3.97;;
15708;SDS011;7954;51.914;8.420;2022-12-18T15:22:22;5.00;;;4.27;;
15708;SDS011;7954;51.914;8.420;2022-12-18T15:24:55;4.87;;;3.97;;
15708;SDS011;7954;51.914;8.420;2022-12-18T15:27:28;5.47;;;4.47;;
15708;SDS011;7954;51.914;8.420;2022-12-18T15:30:00;6.07;;;4.67;;
15708;SDS011;7954;51.914;8.420;2022-12-18T15:32:46;6.17;;;4.60;;
15708;SDS011;7954;51.914;8.420;2022-12-18T15:35:16;6.20;;;4.53;;
15708;SDS011;7954;51.914;8.420;2022-12-18T15:37:46;5.47;;;4.40;;
15708;SDS011;7954;51.914;8.420;2022-12-18T15:40:18;6.20;;;4.57;;
15708;SDS011;7954;51.914;8.420;2022-12-18T15:42:48;7.50;;;5.03;;
15708;SDS011;7954;51.914;8.420;2022-12-18T15:45:35;5.60;;;4.50;;
15708;SDS011;7954;51.914;8.420;2022-12-18T15:48:06;6.07;;;4.67;;